Flight Track Log - Related Links

Times and Time Zones

All times are in EDT time to prevent confusion due to time zone crossing. See the EJA810 flight status page for this flight to view local times or setup timezone preferences in your user account.


Time Position Orientation Groundspeed Altitude Reporting Facility
EDT Latitude Longitude Course Direction KTS MPH feet Rate Location/Type
Mon 05:11:49 AM 40.0028 -82.9019 275° West 140 161 1,200  Level Indianapolis Center
Mon 05:12:56 AM 40.0086 -82.9956 275° West 260 299 4,900 2,457 Climbing Indianapolis Center
Mon 05:13:56 AM 40.0039 -83.0906 266° West 283 326 6,400 1,537 Climbing Indianapolis Center
Mon 05:14:57 AM 39.9539 -83.1725 231° Southwest 280 322 8,000 793 Climbing Indianapolis Center
Mon 05:15:57 AM 39.9042 -83.2517 231° Southwest 281 323 8,000  Level Indianapolis Center
Mon 05:16:58 AM 39.8525 -83.3278 229° Southwest 284 327 8,000  Level Indianapolis Center
Mon 05:17:59 AM 39.7986 -83.4061 228° Southwest 293 337 8,000  Level Indianapolis Center
Mon 05:18:59 AM 39.7467 -83.4844 229° Southwest 277 319 8,000  Level Indianapolis Center
Mon 05:20:00 AM 39.6972 -83.5578 229° Southwest 273 314 8,000  Level Indianapolis Center
Mon 05:21:00 AM 39.6478 -83.6311 229° Southwest 271 312 8,000  Level Indianapolis Center
Mon 05:22:01 AM 39.5958 -83.7067 228° Southwest 287 330 8,000  Level Indianapolis Center
Mon 05:23:02 AM 39.5464 -83.7797 229° Southwest 261 300 8,000 -419 Level Indianapolis Center
Mon 05:24:10 AM 39.4922 -83.8578 228° Southwest 269 310 7,100 -938 Descending Indianapolis Center
Mon 05:25:10 AM 39.4397 -83.9331 228° Southwest 276 318 6,000 -1,091 Descending Indianapolis Center
Mon 05:26:11 AM 39.3883 -84.0086 229° Southwest 277 319 4,900 -1,140 Descending Indianapolis Center
Mon 05:27:11 AM 39.3394 -84.0783 228° Southwest 264 304 3,700 -950 Descending Indianapolis Center
Mon 05:28:11 AM 39.3111 -84.1617 246° West 257 296 3,000 -350 Descending Indianapolis Center
Mon 05:29:11 AM 39.2917 -84.2464 254° West 248 285 3,000  Level Indianapolis Center
Mon 05:30:11 AM 39.2756 -84.3214 255° West 226 260 3,000  Level Indianapolis Center
Mon 05:31:12 AM 39.2397 -84.3494 211° Southwest 196 226 3,000 -453 Level Indianapolis Center
Mon 05:33:03 AM 39.1667 -84.3833 200° South 129 148 1,700 -667 Descending Cincinnati TRACON
Mon 05:34:03 AM 39.1333 -84.4000 201° Southwest 116 133 1,100 -400 Descending Cincinnati TRACON
Mon 05:35:03 AM 39.1167 -84.4000 180° South 124 143 900 -67 Descending Cincinnati TRACON
Mon 05:37:03 AM 39.1167 -84.4000 180° South 124 143 900  Level Cincinnati TRACON
Mon 05:39:03 AM 39.1167 -84.4000 180° South 124 143 900  Level Cincinnati TRACON
Mon 05:41:09 AM 39.1167 -84.4000 180° South 124 143 900  Level Cincinnati TRACON

Login

Don't have an account? Register now (free) for customized features, flight alerts, and more!